x

Eel River - 17nm Wsw Of Eureka, Ca (46022) Wave Buoy

9:50pm - Tue 28th Jul 2015 All times are PDT. -7 hours from GMT.

  • Sig Wave height 9.2ft
  • Swell Direction
  • Peak Period 8s
  • Average Period 7s
  • Wind
  • Sea Temp 57°f
  • Air Temp 59°f
  • Sea Pressure 1012.7mb
  • Eel River - 17nm Wsw Of Eureka, Ca
  • Eel River - 17nm Wsw Of Eureka, Ca

More Historic Weather Station data

Upgrade to MSW Pro to gain access to the past 30 days of data for over 8000 Wavebouys and Weather Stations around the globe.

Join Pro

Comparision Forecast

View Surf forecast
   
Tue 07/28 9:50pm 9ft 8s 7s  -  4 mph 1012.7mb 57f 59f
8:50pm 9ft 8s 7s 4
mph
1012.6mb 57f 59f
7:50pm 9ft 8s 7s 4 7 mph 1013mb 57f 60f
6:50pm 9ft 8s 7s 7 9 mph 1013.2mb 58f 60f
5:50pm 8ft 8s 7s 9 11 mph 1013.3mb 58f 61f
4:50pm 8.5ft 8s 7s 7 9 mph 1013.6mb 57f 60f
3:50pm 8ft 8s 6s 7 9 mph 1013.8mb 57f 60f
2:50pm 8ft 8s 6s 20 22 mph 1013.5mb 58f 60f
1:50pm 8.5ft 8s 6s 22 25 mph 1013.6mb 58f 61f
12:50pm 8.5ft 8s 6s 20 25 mph 1014mb 58f 61f
11:50am 8.5ft 8s 6s 16 20 mph 1014.3mb 58f 61f
10:50am 8ft 8s 7s 16 18 mph 1014.5mb 58f 60f
9:50am 8ft 9s 7s 13 16 mph 1014.7mb 57f 59f
8:50am 8.5ft 9s 7s 9 11 mph 1015mb 57f 58f
7:50am 7.5ft 8s 7s 7 9 mph 1015.1mb 57f 58f
6:50am 8.5ft 9s 7s 7 9 mph 1014.8mb 57f 57f
5:50am 8ft 8s 7s 11 13 mph 1014.6mb 57f 57f
4:50am 9ft 9s 7s 9 13 mph 1014.8mb 57f 57f
3:50am 8.5ft 9s 7s 20 25 mph 1014.7mb 58f 59f
2:50am 8ft 9s 7s 20 25 mph 1015.1mb 58f 59f
1:50am 9ft 9s 7s 20 25 mph 1015.5mb 58f 59f
12:50am 10ft 8s 7s 13 18 mph 1016.3mb 58f 59f
Mon 07/27 11:50pm 10ft 9s 7s 11 13 mph 1016.7mb 58f 60f
10:50pm 10.5ft 8s 7s 11
mph
1017.1mb 58f 60f
9:50pm 9.5ft 9s 6s 9 13 mph 1017.5mb 58f 60f
8:50pm 10ft 8s 7s 13 18 mph 1017.7mb 58f 60f
7:50pm 9ft 8s 6s 16 18 mph 1018mb 58f 61f
6:50pm 9ft 8s 6s 18 22 mph 1018mb 58f 61f
5:50pm 8ft 7s 6s 18 20 mph 1018.3mb 59f 61f
4:50pm 7ft 7s 6s 16 20 mph 1018.4mb 59f 61f
3:50pm 7ft 7s 6s 18 20 mph 1018.7mb 59f 61f
2:50pm 7ft 7s 6s 20 25 mph 1018.8mb 59f 60f
1:50pm 6.5ft 8s 6s 18 25 mph 1019mb 59f 60f
12:50pm 6ft 7s 6s 18 22 mph 1019.3mb 59f 60f
11:50am 6ft 7s 6s 16 20 mph 1019.5mb 59f 60f
10:50am 6ft 7s 6s 16 18 mph 1019.5mb 59f 59f
9:50am 6.5ft 7s 6s 18 22 mph 1019.5mb 59f 58f
8:50am 6.5ft 7s 6s 20 22 mph 1019.2mb 59f 59f
7:50am 7ft 7s 6s 20 25 mph 1018.9mb 59f 59f
6:50am 6.5ft 7s 5s 18 20 mph 1018.8mb 59f 60f
5:50am 6ft 6s 6s 20 22 mph 1018.5mb 58f 60f
4:50am 6.5ft 10s 6s 20 25 mph 1018.1mb 59f 60f
3:50am 5.5ft 10s 6s 20 22 mph 1018.4mb 60f 60f
2:50am 6ft 11s 6s 16 18 mph 1018.7mb 60f 60f
1:50am 5ft 11s 6s 16 18 mph 1018.6mb 60f 60f
12:50am 5ft 11s 6s 18 20 mph 1018.9mb 59f 61f
Sun 07/26 11:50pm 5ft 11s 6s 13 18 mph 1018.9mb 59f 61f
10:50pm 5ft 11s 6s 13 18 mph 1019.2mb 59f 61f
9:50pm 5ft 11s 7s 13 16 mph 1018.9mb 59f 61f
8:50pm 5ft 11s 7s 11 13 mph 1018.8mb 59f 60f
7:50pm 5ft 11s 6s 9 11 mph 1018.7mb 59f 61f
6:50pm 5.5ft 11s 7s 13 16 mph 1018.7mb 60f 61f
5:50pm 6ft 11s 7s 13 18 mph 1018.9mb 60f 61f
4:50pm 6ft 11s 7s 11 13 mph 1019.1mb 60f 61f
3:50pm 6.5ft 11s 7s 11 13 mph 1019mb 60f 61f
2:50pm 5.5ft 11s 7s 11 13 mph 1019.1mb 60f 60f
1:50pm 6.5ft 11s 7s 13 16 mph 1019.1mb 60f 60f
12:50pm 6ft 11s 7s 13 16 mph 1019mb 59f 60f
11:50am 6ft 11s 6s 16 18 mph 1018.7mb 60f 60f
10:50am 6ft 11s 6s 20 22 mph 1018.1mb 59f 60f
9:50am 7ft 11s 7s 18 20 mph 1017.9mb 59f 60f
8:50am 7ft 12s 7s 18 20 mph 1018mb 59f 60f
7:50am 7ft 11s 7s 16 20 mph 1017.8mb 59f 60f
6:50am 7ft 13s 7s 18 22 mph 1017.6mb 59f 60f
5:50am 6.5ft 12s 7s 18 22 mph 1017.4mb 59f 60f
4:50am 6ft 12s 7s 18 20 mph 1017.1mb 60f 60f
3:50am 5.5ft 13s 7s 13 16 mph 1017.5mb 60f 60f
2:50am 5ft 9s 7s 13 16 mph 1017.9mb 60f 60f
1:50am 4.5ft 10s 7s 13 16 mph 1018.3mb 60f 60f
12:50am 5ft 10s 7s 11 13 mph 1018.7mb 60f 60f
Sat 07/25 11:50pm 4.5ft 9s 6s 11 13 mph 1019mb 60f 60f
10:50pm 4.5ft 9s 6s 13 16 mph 1019.1mb 60f 61f
9:50pm 4.5ft 10s 6s 13 16 mph 1019.1mb 60f 61f
8:50pm 4ft 8s 6s 16 18 mph 1019mb 60f 61f
7:50pm 4.5ft 11s 7s 16 18 mph 1019.1mb 60f 62f
6:50pm 3.5ft 9s 7s 13 16 mph 1019.3mb 60f 62f
5:50pm 4ft 9s 7s 11 13 mph 1019.7mb 60f 62f
4:50pm 3.5ft 11s 7s 11 16 mph 1020.1mb 60f 61f
3:50pm 4ft 9s 7s 11 13 mph 1020.5mb 60f 61f
2:50pm 3.5ft 9s 7s 11 13 mph 1020.6mb 60f 61f
1:50pm 3.5ft 11s 7s 9 11 mph 1020.8mb 60f 60f
12:50pm 4ft 8s 7s 9 11 mph 1021mb 60f 60f
11:50am 3.5ft 8s 7s 9 11 mph 1021.2mb 60f 60f
10:50am 3.5ft 8s 7s 9 11 mph 1020.9mb 59f 59f
9:50am 3.5ft 8s 7s 4 7 mph 1020.8mb 59f 59f
8:50am 3.5ft 8s 7s 4 7 mph 1020.8mb 59f 59f
7:50am 4ft 8s 7s 4
mph
1020.6mb 58f 58f
6:50am 4.5ft 8s 7s 4 7 mph 1020.4mb 58f 58f
5:50am 3.5ft 8s 7s 7 9 mph 1020.1mb 58f 60f